createdAt,value
2023-03-18T00:00:12.866Z,7.53
2023-03-18T00:02:46.310Z,7.80
2023-03-18T00:05:14.381Z,7.85
2023-03-18T00:07:43.391Z,8.13
2023-03-18T00:10:18.645Z,8.10
2023-03-18T00:13:01.678Z,8.02
2023-03-18T00:15:42.014Z,9.40
2023-03-18T00:18:10.994Z,7.07
2023-03-18T00:21:02.469Z,8.20
2023-03-18T00:23:45.107Z,7.93
2023-03-18T00:26:19.974Z,8.88
2023-03-18T00:29:06.336Z,9.38
2023-03-18T00:31:41.608Z,9.20
2023-03-18T00:34:13.006Z,9.55
2023-03-18T00:36:58.520Z,9.68
2023-03-18T00:39:47.494Z,8.73
2023-03-18T00:42:19.540Z,10.20
2023-03-18T00:44:55.586Z,9.65
2023-03-18T00:47:29.791Z,9.88
2023-03-18T00:50:36.070Z,9.23
2023-03-18T00:53:05.233Z,9.55
2023-03-18T00:55:36.684Z,10.27
2023-03-18T01:00:41.176Z,9.85
2023-03-18T01:03:19.382Z,10.90
2023-03-18T01:05:57.670Z,10.23
2023-03-18T01:08:40.855Z,11.23
2023-03-18T01:11:14.764Z,12.13
2023-03-18T01:13:54.240Z,10.30
2023-03-18T01:16:28.279Z,9.75
2023-03-18T01:18:57.782Z,9.82
2023-03-18T01:21:42.270Z,9.65
2023-03-18T01:24:11.884Z,7.90
2023-03-18T01:26:55.561Z,7.93
2023-03-18T01:29:28.845Z,8.27
2023-03-18T01:32:19.662Z,8.15
2023-03-18T01:34:48.644Z,7.40
2023-03-18T01:37:16.684Z,7.97
2023-03-18T01:40:04.485Z,8.13
2023-03-18T01:42:48.751Z,7.70
2023-03-18T01:45:26.003Z,8.75
2023-03-18T01:48:15.760Z,8.00
2023-03-18T01:51:00.658Z,8.20
2023-03-18T01:53:50.754Z,7.53
2023-03-18T01:56:25.793Z,7.90
2023-03-18T01:58:55.232Z,7.03
2023-03-18T02:01:32.306Z,8.20
2023-03-18T02:04:25.066Z,8.25
2023-03-18T02:06:56.279Z,7.72
2023-03-18T02:09:24.186Z,7.88
2023-03-18T02:11:52.851Z,8.15
2023-03-18T02:14:36.646Z,7.93
2023-03-18T02:17:14.248Z,7.95
2023-03-18T02:20:01.059Z,7.03
2023-03-18T02:23:07.381Z,7.85
2023-03-18T02:26:04.870Z,7.35
2023-03-18T02:28:34.464Z,8.07
2023-03-18T02:31:15.284Z,7.43
2023-03-18T02:33:45.817Z,7.57
2023-03-18T02:36:18.751Z,7.55
2023-03-18T02:38:47.077Z,7.55
2023-03-18T02:41:22.985Z,6.75
2023-03-18T02:43:52.294Z,7.32
2023-03-18T02:46:49.182Z,6.75
2023-03-18T02:49:28.944Z,6.90
2023-03-18T02:52:23.894Z,6.63
2023-03-18T02:54:53.338Z,6.57
2023-03-18T02:57:21.326Z,5.90
2023-03-18T03:00:09.749Z,6.97
2023-03-18T03:02:46.410Z,7.40
2023-03-18T03:05:15.362Z,7.63
2023-03-18T03:07:43.892Z,6.82
2023-03-18T03:10:14.923Z,7.40
2023-03-18T03:12:46.802Z,7.15
2023-03-18T03:15:25.307Z,6.80
2023-03-18T03:17:57.122Z,6.30
2023-03-18T03:20:26.499Z,7.53
2023-03-18T03:23:20.576Z,6.45
2023-03-18T03:25:48.635Z,6.75
2023-03-18T03:28:17.862Z,6.30
2023-03-18T03:30:57.207Z,6.57
2023-03-18T03:33:55.995Z,6.72
2023-03-18T03:36:25.952Z,6.07
2023-03-18T03:42:12.663Z,8.05
2023-03-18T03:45:02.497Z,7.88
2023-03-18T03:47:40.940Z,8.10
2023-03-18T03:50:09.462Z,6.80
2023-03-18T03:52:37.939Z,7.53
2023-03-18T03:55:17.151Z,7.45
2023-03-18T03:57:51.542Z,7.85
2023-03-18T04:00:22.019Z,7.32
2023-03-18T04:03:17.728Z,7.20
2023-03-18T04:05:52.874Z,7.22
2023-03-18T04:08:42.745Z,7.20
2023-03-18T04:11:11.339Z,7.63
2023-03-18T04:13:43.662Z,8.63
2023-03-18T04:16:18.913Z,7.90
2023-03-18T04:19:14.280Z,8.00
2023-03-18T04:24:55.036Z,7.90
2023-03-18T04:27:38.851Z,8.35
2023-03-18T04:30:24.610Z,7.40
2023-03-18T04:32:58.764Z,7.07
2023-03-18T04:35:52.663Z,7.57
2023-03-18T04:38:22.476Z,7.85
2023-03-18T04:44:08.567Z,7.90
2023-03-18T04:46:41.650Z,7.18
2023-03-18T04:49:21.100Z,7.63
2023-03-18T04:52:18.795Z,7.60
2023-03-18T04:55:03.057Z,7.63
2023-03-18T04:57:39.953Z,6.65
2023-03-18T05:00:26.489Z,7.85
2023-03-18T05:02:58.740Z,6.60
2023-03-18T05:05:52.620Z,6.80
2023-03-18T05:08:30.719Z,6.70
2023-03-18T05:10:58.736Z,7.50
2023-03-18T05:13:37.485Z,7.90
2023-03-18T05:16:06.282Z,6.28
2023-03-18T05:18:35.006Z,6.72
2023-03-18T05:21:03.843Z,6.57
2023-03-18T05:23:42.883Z,6.30
2023-03-18T05:26:19.768Z,6.82
2023-03-18T05:28:48.331Z,6.50
2023-03-18T05:31:17.287Z,7.55
2023-03-18T05:34:08.596Z,7.03
2023-03-18T05:36:45.315Z,6.22
2023-03-18T05:39:37.325Z,6.50
2023-03-18T05:42:06.001Z,6.35
2023-03-18T05:44:35.352Z,6.45
2023-03-18T05:47:39.480Z,6.80
2023-03-18T05:50:09.834Z,6.45
2023-03-18T05:52:44.270Z,6.07
2023-03-18T05:55:16.729Z,6.75
2023-03-18T05:57:52.008Z,6.35
2023-03-18T06:00:19.996Z,7.40
2023-03-18T06:02:53.644Z,6.55
2023-03-18T06:05:25.924Z,6.72
2023-03-18T06:08:09.441Z,6.85
2023-03-18T06:10:37.496Z,6.55
2023-03-18T06:13:14.392Z,6.80
2023-03-18T06:15:49.335Z,7.00
2023-03-18T06:18:19.453Z,6.97
2023-03-18T06:20:47.500Z,7.10
2023-03-18T06:23:23.003Z,7.82
2023-03-18T06:25:53.796Z,6.30
2023-03-18T06:28:22.175Z,6.97
2023-03-18T06:31:29.716Z,8.52
2023-03-18T06:34:01.260Z,7.90
2023-03-18T06:36:43.134Z,8.60
2023-03-18T06:39:13.546Z,8.05
2023-03-18T06:41:47.016Z,8.63
2023-03-18T06:44:22.807Z,8.65
2023-03-18T06:46:50.794Z,9.63
2023-03-18T06:49:25.368Z,8.50
2023-03-18T06:51:54.482Z,8.13
2023-03-18T06:54:34.681Z,7.93
2023-03-18T06:57:04.836Z,7.55
2023-03-18T06:59:33.071Z,6.88
2023-03-18T07:02:02.655Z,10.35
2023-03-18T07:04:30.881Z,9.82
2023-03-18T07:07:07.220Z,8.80
2023-03-18T07:09:42.088Z,9.73
2023-03-18T07:12:25.566Z,7.80
2023-03-18T07:15:13.076Z,7.85
2023-03-18T07:17:58.559Z,9.50
2023-03-18T07:20:26.582Z,9.32
2023-03-18T07:22:57.940Z,7.70
2023-03-18T07:25:33.113Z,7.13
2023-03-18T07:28:01.663Z,8.70
2023-03-18T07:30:54.331Z,8.40
2023-03-18T07:33:28.718Z,8.23
2023-03-18T07:35:56.718Z,8.25
2023-03-18T07:38:36.307Z,7.82
2023-03-18T07:41:04.330Z,6.63
2023-03-18T07:43:46.694Z,7.78
2023-03-18T07:46:17.715Z,8.07
2023-03-18T07:48:46.538Z,7.50
2023-03-18T07:51:17.262Z,6.82
2023-03-18T07:53:47.485Z,6.60
2023-03-18T07:56:23.276Z,7.45
2023-03-18T07:58:54.069Z,6.70
2023-03-18T08:01:40.318Z,8.00
2023-03-18T08:04:19.253Z,6.97
2023-03-18T08:06:47.704Z,7.28
2023-03-18T08:09:38.631Z,7.25
2023-03-18T08:12:11.969Z,6.85
2023-03-18T08:14:57.029Z,7.35
2023-03-18T08:17:24.873Z,7.43
2023-03-18T08:19:56.886Z,8.65
2023-03-18T08:22:26.916Z,9.30
2023-03-18T08:24:56.368Z,8.18
2023-03-18T08:27:34.601Z,8.07
2023-03-18T08:30:10.800Z,7.60
2023-03-18T08:32:44.384Z,8.20
2023-03-18T08:35:15.344Z,7.85
2023-03-18T08:37:45.747Z,7.60
2023-03-18T08:40:32.306Z,8.10
2023-03-18T08:43:04.241Z,8.02
2023-03-18T08:45:37.580Z,7.95
2023-03-18T08:48:16.172Z,9.40
2023-03-18T08:50:46.076Z,7.75
2023-03-18T08:53:28.301Z,7.90
2023-03-18T08:56:02.851Z,7.15
2023-03-18T08:58:39.134Z,7.68
2023-03-18T09:01:26.400Z,8.32
2023-03-18T09:03:54.882Z,7.93
2023-03-18T09:06:28.061Z,7.28
2023-03-18T09:08:56.807Z,7.32
2023-03-18T09:11:26.701Z,7.85
2023-03-18T09:14:06.456Z,7.30
2023-03-18T09:16:56.458Z,7.80
2023-03-18T09:19:41.380Z,7.60
2023-03-18T09:22:14.359Z,7.38
2023-03-18T09:24:57.772Z,7.32
2023-03-18T09:27:45.075Z,7.13
2023-03-18T09:30:21.168Z,6.35
2023-03-18T09:32:53.578Z,7.75
2023-03-18T09:35:21.709Z,7.20
2023-03-18T09:38:08.719Z,7.57
2023-03-18T09:40:52.540Z,7.88
2023-03-18T09:43:20.327Z,7.50
2023-03-18T09:46:24.637Z,7.30
2023-03-18T09:49:27.071Z,6.70
2023-03-18T09:52:16.106Z,7.65
2023-03-18T09:55:08.937Z,7.13
2023-03-18T09:57:40.294Z,7.28
2023-03-18T10:00:10.660Z,7.00
2023-03-18T10:02:49.286Z,6.95
2023-03-18T10:05:30.713Z,6.97
2023-03-18T10:10:41.627Z,7.18
2023-03-18T10:13:10.818Z,7.38
2023-03-18T10:15:42.778Z,7.90
2023-03-18T10:18:24.072Z,16.65
2023-03-18T10:21:10.524Z,10.65
2023-03-18T10:23:56.211Z,12.18
2023-03-18T10:26:49.909Z,9.57
2023-03-18T10:29:24.365Z,11.82
2023-03-18T10:32:05.618Z,12.35
2023-03-18T10:34:54.154Z,13.07
2023-03-18T10:37:45.709Z,10.00
2023-03-18T10:42:51.586Z,10.40
2023-03-18T10:45:25.565Z,11.82
2023-03-18T10:48:12.431Z,10.52
2023-03-18T10:51:06.418Z,11.70
2023-03-18T10:57:03.516Z,13.00
2023-03-18T10:59:46.664Z,17.42
2023-03-18T11:02:38.651Z,12.95
2023-03-18T11:05:30.809Z,12.13
2023-03-18T11:08:45.514Z,10.80
2023-03-18T11:11:39.272Z,11.30
2023-03-18T11:14:09.551Z,12.68
2023-03-18T11:20:22.428Z,11.30
2023-03-18T11:22:56.782Z,19.35
2023-03-18T11:25:41.884Z,12.77
2023-03-18T11:28:20.123Z,11.07
2023-03-18T11:30:49.650Z,9.35
2023-03-18T11:33:18.989Z,13.35
2023-03-18T11:35:55.161Z,11.75
2023-03-18T11:38:25.529Z,11.07
2023-03-18T11:41:06.496Z,10.35
2023-03-18T11:43:34.455Z,11.05
2023-03-18T11:46:13.563Z,11.73
2023-03-18T11:48:48.447Z,10.43
2023-03-18T11:51:36.560Z,13.43
2023-03-18T11:54:37.732Z,10.25
2023-03-18T11:57:12.983Z,10.60
2023-03-18T12:00:00.747Z,11.70
2023-03-18T12:02:33.401Z,10.80
2023-03-18T12:05:22.506Z,9.52
2023-03-18T12:07:58.002Z,9.80
2023-03-18T12:10:49.767Z,10.10
2023-03-18T12:13:32.922Z,10.57
2023-03-18T12:16:24.706Z,11.23
2023-03-18T12:19:08.119Z,10.98
2023-03-18T12:21:46.081Z,10.05
2023-03-18T12:27:51.568Z,9.30
2023-03-18T12:30:39.554Z,8.85
2023-03-18T12:33:15.937Z,9.98
2023-03-18T12:36:17.957Z,10.88
2023-03-18T12:39:13.005Z,9.40
2023-03-18T12:42:10.404Z,10.23
2023-03-18T12:44:41.174Z,10.45
2023-03-18T12:47:40.151Z,9.93
2023-03-18T12:50:10.009Z,9.68
2023-03-18T12:52:52.286Z,10.00
2023-03-18T12:55:34.380Z,25.90
2023-03-18T12:58:06.471Z,23.15
2023-03-18T13:00:49.084Z,11.13
2023-03-18T13:03:33.276Z,9.88
2023-03-18T13:06:35.010Z,9.43
2023-03-18T13:09:07.893Z,10.50
2023-03-18T13:12:01.560Z,11.02
2023-03-18T13:14:53.458Z,11.15
2023-03-18T13:17:50.556Z,11.00
2023-03-18T13:20:24.841Z,11.60
2023-03-18T13:23:13.495Z,11.18
2023-03-18T13:25:58.074Z,11.00
2023-03-18T13:28:37.948Z,10.48
2023-03-18T13:31:07.083Z,11.73
2023-03-18T13:33:42.424Z,11.43
2023-03-18T13:36:19.818Z,12.27
2023-03-18T13:38:56.969Z,12.73
2023-03-18T13:41:29.877Z,12.00
2023-03-18T13:44:10.714Z,11.50
2023-03-18T13:47:10.404Z,12.50
2023-03-18T13:49:46.815Z,11.70
2023-03-18T13:52:36.161Z,13.05
2023-03-18T13:55:07.869Z,11.70
2023-03-18T13:58:10.956Z,11.65
2023-03-18T14:01:10.227Z,11.77
2023-03-18T14:03:43.981Z,11.05
2023-03-18T14:06:23.512Z,12.38
2023-03-18T14:08:52.611Z,10.43
2023-03-18T14:11:28.779Z,10.23
2023-03-18T14:14:07.230Z,11.32
2023-03-18T14:19:56.926Z,11.30
2023-03-18T14:22:56.304Z,11.18
2023-03-18T14:25:35.831Z,11.15
2023-03-18T14:28:22.533Z,11.30
2023-03-18T14:30:57.748Z,11.38
2023-03-18T14:33:54.007Z,11.50
2023-03-18T14:36:42.972Z,13.13
2023-03-18T14:39:39.421Z,12.23
2023-03-18T14:42:28.361Z,12.18
2023-03-18T14:45:18.060Z,10.77
2023-03-18T14:47:47.759Z,11.90
2023-03-18T14:50:35.009Z,11.20
2023-03-18T14:53:24.794Z,12.30
2023-03-18T14:55:57.414Z,11.35
2023-03-18T14:58:44.424Z,10.82
2023-03-18T15:01:17.522Z,13.35
2023-03-18T15:03:52.711Z,11.45
2023-03-18T15:06:33.615Z,11.73
2023-03-18T15:09:25.647Z,14.23
2023-03-18T15:12:00.525Z,11.82
2023-03-18T15:14:35.566Z,11.38
2023-03-18T15:17:05.570Z,13.23
2023-03-18T15:19:41.334Z,10.88
2023-03-18T15:22:22.382Z,12.13
2023-03-18T15:25:00.514Z,11.55
2023-03-18T15:27:30.133Z,11.50
2023-03-18T15:30:06.168Z,12.02
2023-03-18T15:32:59.915Z,11.40
2023-03-18T15:35:30.101Z,11.73
2023-03-18T15:38:28.291Z,11.07
2023-03-18T15:41:03.866Z,12.15
2023-03-18T15:43:36.785Z,13.30
2023-03-18T15:46:28.565Z,12.27
2023-03-18T15:49:10.746Z,12.20
2023-03-18T15:51:58.783Z,12.93
2023-03-18T15:54:40.966Z,11.95
2023-03-18T15:57:13.471Z,13.18
2023-03-18T15:59:57.538Z,13.00
2023-03-18T16:02:51.891Z,13.05
2023-03-18T16:05:35.390Z,13.38
2023-03-18T16:08:03.662Z,12.45
2023-03-18T16:10:31.697Z,11.52
2023-03-18T16:13:03.128Z,12.57
2023-03-18T16:15:34.052Z,13.38
2023-03-18T16:18:12.372Z,12.68
2023-03-18T16:20:50.479Z,13.13
2023-03-18T16:23:18.785Z,12.50
2023-03-18T16:25:50.281Z,12.98
2023-03-18T16:28:20.644Z,14.02
2023-03-18T16:31:01.232Z,13.95
2023-03-18T16:33:32.750Z,13.73
2023-03-18T16:36:03.785Z,13.57
2023-03-18T16:38:32.478Z,13.60
2023-03-18T16:41:06.529Z,12.82
2023-03-18T16:44:11.887Z,14.43
2023-03-18T16:46:56.590Z,14.50
2023-03-18T16:49:40.089Z,14.00
2023-03-18T16:52:31.587Z,14.25
2023-03-18T16:55:04.684Z,14.85
2023-03-18T16:57:33.610Z,17.27
2023-03-18T17:00:34.539Z,17.48
2023-03-18T17:03:02.889Z,19.05
2023-03-18T17:05:51.581Z,15.38
2023-03-18T17:08:20.437Z,14.38
2023-03-18T17:10:56.845Z,16.67
2023-03-18T17:13:28.525Z,15.07
2023-03-18T17:16:17.012Z,14.30
2023-03-18T17:18:51.031Z,14.07
2023-03-18T17:21:31.823Z,15.60
2023-03-18T17:24:02.820Z,14.50
2023-03-18T17:26:33.266Z,15.27
2023-03-18T17:29:01.452Z,14.68
2023-03-18T17:31:33.017Z,14.65
2023-03-18T17:34:01.115Z,14.45
2023-03-18T17:36:30.871Z,13.35
2023-03-18T17:39:01.629Z,14.30
2023-03-18T17:41:29.703Z,14.65
2023-03-18T17:44:01.759Z,14.25
2023-03-18T17:46:34.325Z,14.38
2023-03-18T17:49:14.571Z,15.13
2023-03-18T17:51:57.443Z,16.08
2023-03-18T17:54:28.356Z,16.25
2023-03-18T17:56:57.261Z,16.27
2023-03-18T17:59:32.263Z,15.82
2023-03-18T18:02:02.195Z,14.90
2023-03-18T18:04:30.981Z,14.05
2023-03-18T18:07:03.232Z,14.07
2023-03-18T18:09:31.389Z,14.38
2023-03-18T18:11:59.358Z,14.13
2023-03-18T18:14:35.747Z,14.07
2023-03-18T18:17:21.995Z,15.02
2023-03-18T18:20:00.995Z,16.50
2023-03-18T18:22:42.008Z,12.45
2023-03-18T18:25:15.940Z,13.05
2023-03-18T18:27:54.039Z,12.55
2023-03-18T18:30:26.400Z,13.73
2023-03-18T18:33:04.094Z,14.57
2023-03-18T18:35:43.397Z,14.63
2023-03-18T18:38:33.224Z,12.68
2023-03-18T18:41:10.718Z,13.45
2023-03-18T18:43:42.520Z,14.57
2023-03-18T18:46:15.892Z,12.52
2023-03-18T18:49:14.020Z,13.45
2023-03-18T18:51:42.438Z,13.18
2023-03-18T18:54:13.696Z,12.85
2023-03-18T18:56:48.979Z,13.15
2023-03-18T18:59:28.116Z,14.35
2023-03-18T19:02:01.923Z,14.85
2023-03-18T19:04:39.435Z,15.27
2023-03-18T19:07:18.558Z,14.27
2023-03-18T19:13:52.451Z,13.18
2023-03-18T19:16:21.596Z,14.05
2023-03-18T19:18:52.895Z,13.32
2023-03-18T19:24:40.614Z,14.50
2023-03-18T19:27:23.095Z,14.55
2023-03-18T19:29:53.609Z,13.43
2023-03-18T19:32:27.088Z,14.13
2023-03-18T19:34:56.040Z,12.07
2023-03-18T19:37:28.794Z,13.75
2023-03-18T19:39:59.211Z,13.45
2023-03-18T19:42:36.988Z,15.10
2023-03-18T19:45:07.380Z,13.75
2023-03-18T19:47:43.376Z,12.45
2023-03-18T19:50:17.681Z,12.77
2023-03-18T19:53:11.551Z,13.38
2023-03-18T19:55:51.682Z,12.30
2023-03-18T19:58:23.317Z,12.52
2023-03-18T20:01:01.651Z,11.48
2023-03-18T20:03:44.187Z,16.50
2023-03-18T20:06:18.084Z,16.08
2023-03-18T20:08:54.065Z,13.07
2023-03-18T20:11:26.103Z,11.40
2023-03-18T20:14:02.341Z,11.15
2023-03-18T20:16:36.344Z,10.52
2023-03-18T20:19:11.764Z,11.25
2023-03-18T20:21:40.989Z,10.48
2023-03-18T20:24:10.208Z,10.75
2023-03-18T20:26:41.867Z,11.02
2023-03-18T20:31:39.369Z,12.48
2023-03-18T20:34:24.255Z,10.63
2023-03-18T20:36:53.229Z,11.80
2023-03-18T20:39:22.979Z,16.95
2023-03-18T20:41:53.352Z,19.02
2023-03-18T20:44:21.273Z,16.00
2023-03-18T20:46:52.753Z,15.95
2023-03-18T20:51:59.273Z,15.35
2023-03-18T20:54:36.193Z,14.93
2023-03-18T20:57:11.012Z,15.85
2023-03-18T20:59:39.203Z,19.58
2023-03-18T21:02:28.327Z,19.70
2023-03-18T21:05:11.501Z,17.70
2023-03-18T21:07:49.996Z,16.60
2023-03-18T21:10:38.501Z,17.05
2023-03-18T21:13:28.750Z,16.40
2023-03-18T21:16:11.195Z,17.00
2023-03-18T21:19:04.170Z,18.67
2023-03-18T21:21:47.900Z,17.38
2023-03-18T21:24:27.175Z,17.38
2023-03-18T21:27:05.291Z,18.48
2023-03-18T21:29:33.883Z,16.20
2023-03-18T21:32:03.695Z,17.30
2023-03-18T21:34:42.651Z,15.65
2023-03-18T21:37:19.663Z,15.40
2023-03-18T21:39:48.812Z,16.23
2023-03-18T21:42:31.867Z,14.73
2023-03-18T21:45:02.881Z,15.48
2023-03-18T21:48:11.736Z,13.55
2023-03-18T21:50:57.265Z,12.77
2023-03-18T21:53:40.052Z,11.55
2023-03-18T21:56:11.146Z,12.05
2023-03-18T21:58:42.145Z,10.75
2023-03-18T22:01:13.936Z,10.65
2023-03-18T22:03:55.998Z,12.32
2023-03-18T22:06:24.194Z,11.70
2023-03-18T22:09:20.990Z,11.23
2023-03-18T22:11:50.049Z,11.63
2023-03-18T22:14:17.903Z,15.32
2023-03-18T22:16:45.655Z,14.52
2023-03-18T22:19:21.281Z,15.80
2023-03-18T22:22:04.398Z,16.52
2023-03-18T22:24:34.172Z,17.90
2023-03-18T22:27:06.364Z,17.52
2023-03-18T22:29:34.044Z,16.48
2023-03-18T22:32:03.782Z,17.10
2023-03-18T22:34:49.644Z,16.05
2023-03-18T22:37:23.988Z,15.52
2023-03-18T22:40:00.894Z,16.58
2023-03-18T22:42:38.549Z,16.65
2023-03-18T22:45:07.598Z,17.67
2023-03-18T22:47:35.763Z,15.15
2023-03-18T22:50:22.481Z,15.68
2023-03-18T22:53:07.107Z,15.27
2023-03-18T22:55:52.976Z,14.70
2023-03-18T22:58:28.203Z,15.32
2023-03-18T23:00:58.531Z,15.10
2023-03-18T23:03:41.545Z,15.48
2023-03-18T23:06:30.051Z,15.65
2023-03-18T23:09:08.283Z,15.27
2023-03-18T23:11:37.524Z,15.27
2023-03-18T23:14:11.682Z,15.45
2023-03-18T23:17:03.328Z,16.58
2023-03-18T23:19:49.748Z,14.00
2023-03-18T23:22:34.604Z,13.40
2023-03-18T23:25:07.923Z,12.73
2023-03-18T23:27:42.833Z,14.52
2023-03-18T23:30:25.948Z,16.17
2023-03-18T23:32:56.014Z,14.18
2023-03-18T23:35:31.422Z,15.10
2023-03-18T23:38:03.478Z,15.35
2023-03-18T23:40:31.817Z,13.10
2023-03-18T23:43:16.308Z,14.15
2023-03-18T23:45:51.342Z,12.65
2023-03-18T23:48:25.765Z,12.57
2023-03-18T23:51:04.468Z,12.48
2023-03-18T23:53:37.338Z,11.82
2023-03-18T23:56:10.631Z,12.20
2023-03-18T23:58:39.606Z,11.52
